createdAt,value
2022-12-07T00:01:21.893Z,5.80
2022-12-07T00:03:51.323Z,6.20
2022-12-07T00:06:21.963Z,5.70
2022-12-07T00:08:50.507Z,5.47
2022-12-07T00:11:20.737Z,4.63
2022-12-07T00:13:53.397Z,6.17
2022-12-07T00:16:23.884Z,7.17
2022-12-07T00:18:52.256Z,5.77
2022-12-07T00:21:23.960Z,5.57
2022-12-07T00:23:53.959Z,6.27
2022-12-07T00:26:25.177Z,5.80
2022-12-07T00:28:55.476Z,5.90
2022-12-07T00:31:25.094Z,6.20
2022-12-07T00:33:53.544Z,5.77
2022-12-07T00:36:27.278Z,6.53
2022-12-07T00:38:56.257Z,6.70
2022-12-07T00:41:26.844Z,6.50
2022-12-07T00:43:55.114Z,7.50
2022-12-07T00:46:24.363Z,6.77
2022-12-07T00:48:53.399Z,8.03
2022-12-07T00:51:25.321Z,6.73
2022-12-07T00:53:54.623Z,6.77
2022-12-07T00:56:24.715Z,7.27
2022-12-07T00:58:54.617Z,6.33
2022-12-07T01:01:22.798Z,8.03
2022-12-07T01:03:51.139Z,6.53
2022-12-07T01:06:20.915Z,8.27
2022-12-07T01:08:51.189Z,5.97
2022-12-07T01:11:21.591Z,6.97
2022-12-07T01:13:51.931Z,6.17
2022-12-07T01:16:21.215Z,7.13
2022-12-07T01:18:50.293Z,7.13
2022-12-07T01:21:21.698Z,5.83
2022-12-07T01:23:52.175Z,7.20
2022-12-07T01:26:21.853Z,9.00
2022-12-07T01:28:50.143Z,6.80
2022-12-07T01:31:20.293Z,7.00
2022-12-07T01:33:50.092Z,6.45
2022-12-07T01:36:20.065Z,5.03
2022-12-07T01:38:52.608Z,7.17
2022-12-07T01:41:21.978Z,6.30
2022-12-07T01:44:19.572Z,6.17
2022-12-07T01:46:48.934Z,5.97
2022-12-07T01:49:30.144Z,6.30
2022-12-07T01:52:05.254Z,6.13
2022-12-07T01:54:36.116Z,6.87
2022-12-07T01:57:06.936Z,6.13
2022-12-07T01:59:35.729Z,7.00
2022-12-07T02:02:05.964Z,6.18
2022-12-07T02:04:34.268Z,5.47
2022-12-07T02:07:02.456Z,5.72
2022-12-07T02:09:30.508Z,6.07
2022-12-07T02:12:00.031Z,4.80
2022-12-07T02:14:28.154Z,6.17
2022-12-07T02:17:08.951Z,6.83
2022-12-07T02:20:12.659Z,5.57
2022-12-07T02:23:08.135Z,4.93
2022-12-07T02:25:53.210Z,5.70
2022-12-07T02:28:30.475Z,6.13
2022-12-07T02:31:04.897Z,4.70
2022-12-07T02:33:38.781Z,6.10
2022-12-07T02:36:10.403Z,4.93
2022-12-07T02:38:44.035Z,4.80
2022-12-07T02:41:15.450Z,6.20
2022-12-07T02:43:48.616Z,6.22
2022-12-07T02:46:23.407Z,4.90
2022-12-07T02:48:53.257Z,5.37
2022-12-07T02:51:21.486Z,4.87
2022-12-07T02:53:49.619Z,4.87
2022-12-07T02:56:27.811Z,4.77
2022-12-07T02:59:04.515Z,4.10
2022-12-07T03:01:44.865Z,4.32
2022-12-07T03:04:29.657Z,4.10
2022-12-07T03:07:07.648Z,4.45
2022-12-07T03:09:43.126Z,4.77
2022-12-07T03:12:18.915Z,4.82
2022-12-07T03:14:52.019Z,4.55
2022-12-07T03:17:26.410Z,4.85
2022-12-07T03:19:59.437Z,5.15
2022-12-07T03:22:30.351Z,5.00
2022-12-07T03:25:02.585Z,4.65
2022-12-07T03:27:34.714Z,4.57
2022-12-07T03:30:06.762Z,4.05
2022-12-07T03:32:41.027Z,4.32
2022-12-07T03:35:14.673Z,4.45
2022-12-07T03:37:47.082Z,4.20
2022-12-07T03:40:19.458Z,4.50
2022-12-07T03:42:48.784Z,3.58
2022-12-07T03:45:18.794Z,3.85
2022-12-07T03:47:54.081Z,3.80
2022-12-07T03:50:30.237Z,3.25
2022-12-07T03:53:02.192Z,3.23
2022-12-07T03:55:33.908Z,2.95
2022-12-07T03:58:05.161Z,3.47
2022-12-07T04:00:33.518Z,2.58
2022-12-07T04:03:03.111Z,2.87
2022-12-07T04:05:31.373Z,3.38
2022-12-07T04:07:59.537Z,3.37
2022-12-07T04:10:27.682Z,3.87
2022-12-07T04:12:55.776Z,3.50
2022-12-07T04:15:24.046Z,3.00
2022-12-07T04:17:52.230Z,2.50
2022-12-07T04:20:21.949Z,3.13
2022-12-07T04:22:50.073Z,3.03
2022-12-07T04:25:18.186Z,2.60
2022-12-07T04:27:46.202Z,2.95
2022-12-07T04:30:15.077Z,2.30
2022-12-07T04:32:43.312Z,2.50
2022-12-07T04:35:11.541Z,2.58
2022-12-07T04:37:40.941Z,2.63
2022-12-07T04:40:12.153Z,2.40
2022-12-07T04:42:40.764Z,2.40
2022-12-07T04:45:10.169Z,2.27
2022-12-07T04:47:38.246Z,2.70
2022-12-07T04:50:07.700Z,2.07
2022-12-07T04:52:35.707Z,2.13
2022-12-07T04:55:05.461Z,3.43
2022-12-07T04:57:33.507Z,2.23
2022-12-07T05:00:01.888Z,2.13
2022-12-07T05:02:30.339Z,2.83
2022-12-07T05:04:58.459Z,3.77
2022-12-07T05:07:26.455Z,2.37
2022-12-07T05:09:54.453Z,2.33
2022-12-07T05:12:23.940Z,2.40
2022-12-07T05:14:51.927Z,3.20
2022-12-07T05:17:20.008Z,3.00
2022-12-07T05:19:47.991Z,2.77
2022-12-07T05:22:16.436Z,2.63
2022-12-07T05:24:44.431Z,2.87
2022-12-07T05:27:12.531Z,2.80
2022-12-07T05:29:41.936Z,2.60
2022-12-07T05:32:10.053Z,2.17
2022-12-07T05:34:38.309Z,3.87
2022-12-07T05:37:06.400Z,3.80
2022-12-07T05:39:34.490Z,3.37
2022-12-07T05:42:14.372Z,2.63
2022-12-07T05:44:45.438Z,3.33
2022-12-07T05:47:13.982Z,3.03
2022-12-07T05:49:42.064Z,2.60
2022-12-07T05:52:10.204Z,2.57
2022-12-07T05:54:38.324Z,3.77
2022-12-07T05:57:06.342Z,3.87
2022-12-07T05:59:33.987Z,3.70
2022-12-07T06:02:07.984Z,3.57
2022-12-07T06:04:38.419Z,3.20
2022-12-07T06:07:07.805Z,2.73
2022-12-07T06:09:36.384Z,3.40
2022-12-07T06:12:22.646Z,3.43
2022-12-07T06:14:50.801Z,3.20
2022-12-07T06:17:20.221Z,3.67
2022-12-07T06:19:48.341Z,2.83
2022-12-07T06:22:17.163Z,3.03
2022-12-07T06:24:45.409Z,2.87
2022-12-07T06:27:13.623Z,2.93
2022-12-07T06:29:41.675Z,2.97
2022-12-07T06:32:10.034Z,2.50
2022-12-07T06:34:39.896Z,3.47
2022-12-07T06:37:08.441Z,4.07
2022-12-07T06:39:36.679Z,2.97
2022-12-07T06:42:04.879Z,3.60
2022-12-07T06:44:33.800Z,3.73
2022-12-07T06:47:31.863Z,2.93
2022-12-07T06:49:51.537Z,3.37
2022-12-07T06:52:19.786Z,3.33
2022-12-07T06:54:47.794Z,3.17
2022-12-07T06:57:15.900Z,3.97
2022-12-07T06:59:44.037Z,3.10
2022-12-07T07:02:14.258Z,3.13
2022-12-07T07:04:42.922Z,3.60
2022-12-07T07:07:12.583Z,3.63
2022-12-07T07:09:40.776Z,3.00
2022-12-07T07:12:08.826Z,4.17
2022-12-07T07:14:39.459Z,3.17
2022-12-07T07:17:07.669Z,3.03
2022-12-07T07:19:35.926Z,3.23
2022-12-07T07:22:04.253Z,2.20
2022-12-07T07:24:33.860Z,3.37
2022-12-07T07:27:02.120Z,3.67
2022-12-07T07:29:30.257Z,2.67
2022-12-07T07:32:03.278Z,2.20
2022-12-07T07:34:34.687Z,3.13
2022-12-07T07:37:02.909Z,2.30
2022-12-07T07:39:31.509Z,3.33
2022-12-07T07:42:01.587Z,3.27
2022-12-07T07:44:35.436Z,2.10
2022-12-07T07:47:04.751Z,2.37
2022-12-07T07:49:33.406Z,2.70
2022-12-07T07:52:01.580Z,2.43
2022-12-07T07:54:29.890Z,2.70
2022-12-07T07:56:58.098Z,2.37
2022-12-07T07:59:28.399Z,2.23
2022-12-07T08:01:56.723Z,2.73
2022-12-07T08:04:25.208Z,2.77
2022-12-07T08:06:54.240Z,2.67
2022-12-07T08:09:24.367Z,3.17
2022-12-07T08:11:52.915Z,3.57
2022-12-07T08:14:21.345Z,3.10
2022-12-07T08:16:50.966Z,2.60
2022-12-07T08:19:19.458Z,2.57
2022-12-07T08:21:47.882Z,3.43
2022-12-07T08:24:16.047Z,2.43
2022-12-07T08:26:45.862Z,2.30
2022-12-07T08:29:13.984Z,2.50
2022-12-07T08:31:44.026Z,2.87
2022-12-07T08:34:14.024Z,2.90
2022-12-07T08:36:42.376Z,2.40
2022-12-07T08:41:59.313Z,3.17
2022-12-07T08:44:28.621Z,2.40
2022-12-07T08:47:00.917Z,2.50
2022-12-07T08:49:35.544Z,3.23
2022-12-07T08:52:06.218Z,2.20
2022-12-07T08:54:37.429Z,3.50
2022-12-07T08:57:07.525Z,2.40
2022-12-07T08:59:38.768Z,2.20
2022-12-07T09:02:08.774Z,3.03
2022-12-07T09:04:39.719Z,2.30
2022-12-07T09:07:08.091Z,3.50
2022-12-07T09:09:37.346Z,2.97
2022-12-07T09:12:07.490Z,2.33
2022-12-07T09:14:36.804Z,2.37
2022-12-07T09:17:10.134Z,2.33
2022-12-07T09:19:41.511Z,2.83
2022-12-07T09:22:09.842Z,2.50
2022-12-07T09:24:39.196Z,2.13
2022-12-07T09:27:08.372Z,2.10
2022-12-07T09:29:37.158Z,1.40
2022-12-07T09:32:09.987Z,1.53
2022-12-07T09:34:41.471Z,1.80
2022-12-07T09:37:10.010Z,2.07
2022-12-07T09:39:46.074Z,1.80
2022-12-07T09:42:29.911Z,1.10
2022-12-07T09:45:00.687Z,2.87
2022-12-07T09:47:29.971Z,1.60
2022-12-07T09:50:06.178Z,1.93
2022-12-07T09:52:38.756Z,1.73
2022-12-07T09:55:13.609Z,1.77
2022-12-07T09:57:41.899Z,1.70
2022-12-07T10:00:16.582Z,1.53
2022-12-07T10:02:47.000Z,2.13
2022-12-07T10:05:24.144Z,2.27
2022-12-07T10:07:53.266Z,1.67
2022-12-07T10:10:38.408Z,1.43
2022-12-07T10:13:08.081Z,1.65
2022-12-07T10:15:49.035Z,1.43
2022-12-07T10:18:27.024Z,2.00
2022-12-07T10:21:08.524Z,1.75
2022-12-07T10:23:37.921Z,1.70
2022-12-07T10:26:38.869Z,2.55
2022-12-07T10:29:18.331Z,2.10
2022-12-07T10:31:47.995Z,2.05
2022-12-07T10:34:25.842Z,2.28
2022-12-07T10:36:55.888Z,2.10
2022-12-07T10:39:25.228Z,1.38
2022-12-07T10:41:58.403Z,1.95
2022-12-07T10:44:28.680Z,2.05
2022-12-07T10:47:11.694Z,2.00
2022-12-07T10:50:10.297Z,1.88
2022-12-07T10:53:01.044Z,1.65
2022-12-07T10:55:45.060Z,2.13
2022-12-07T10:58:35.332Z,1.73
2022-12-07T11:01:15.420Z,2.17
2022-12-07T11:03:58.324Z,2.58
2022-12-07T11:06:34.532Z,1.83
2022-12-07T11:10:06.957Z,2.13
2022-12-07T11:12:32.674Z,1.73
2022-12-07T11:15:06.464Z,2.03
2022-12-07T11:17:44.155Z,2.08
2022-12-07T11:20:27.434Z,1.58
2022-12-07T11:23:03.370Z,2.13
2022-12-07T11:25:38.731Z,2.22
2022-12-07T11:28:24.211Z,1.90
2022-12-07T11:30:59.664Z,1.85
2022-12-07T11:33:36.309Z,2.58
2022-12-07T11:36:13.586Z,1.90
2022-12-07T11:38:47.201Z,2.10
2022-12-07T11:41:23.135Z,1.25
2022-12-07T11:44:01.553Z,1.17
2022-12-07T11:46:44.372Z,1.65
2022-12-07T11:49:18.240Z,1.35
2022-12-07T11:51:50.425Z,1.73
2022-12-07T11:54:23.801Z,2.95
2022-12-07T11:56:56.113Z,1.80
2022-12-07T11:59:32.116Z,2.28
2022-12-07T12:02:14.828Z,1.90
2022-12-07T12:04:53.840Z,1.90
2022-12-07T12:10:26.730Z,1.67
2022-12-07T12:16:30.612Z,1.48
2022-12-07T12:19:17.294Z,1.83
2022-12-07T12:21:48.826Z,1.30
2022-12-07T12:24:21.196Z,1.67
2022-12-07T12:26:55.408Z,1.58
2022-12-07T12:29:33.448Z,1.58
2022-12-07T12:32:14.893Z,1.25
2022-12-07T12:34:59.494Z,1.55
2022-12-07T12:37:47.166Z,1.02
2022-12-07T12:40:45.640Z,1.58
2022-12-07T12:43:43.281Z,1.58
2022-12-07T12:46:50.160Z,1.40
2022-12-07T12:50:07.320Z,1.08
2022-12-07T12:52:55.925Z,1.00
2022-12-07T12:55:53.380Z,0.80
2022-12-07T12:58:36.410Z,1.13
2022-12-07T13:01:49.603Z,1.00
2022-12-07T13:04:39.954Z,1.05
2022-12-07T13:07:15.466Z,1.02
2022-12-07T13:09:48.088Z,1.05
2022-12-07T13:12:18.375Z,1.48
2022-12-07T13:14:58.556Z,1.40
2022-12-07T13:18:01.473Z,1.40
2022-12-07T13:21:01.637Z,1.42
2022-12-07T13:23:36.955Z,1.38
2022-12-07T13:26:24.876Z,1.45
2022-12-07T13:28:54.998Z,0.90
2022-12-07T13:31:33.335Z,1.08
2022-12-07T13:34:02.675Z,1.02
2022-12-07T13:36:36.948Z,1.75
2022-12-07T13:39:20.316Z,1.23
2022-12-07T13:41:53.599Z,1.02
2022-12-07T13:44:24.052Z,1.13
2022-12-07T13:47:02.668Z,1.63
2022-12-07T13:49:32.696Z,1.17
2022-12-07T13:52:18.197Z,1.17
2022-12-07T13:54:48.161Z,1.17
2022-12-07T13:57:17.338Z,1.20
2022-12-07T13:59:46.075Z,1.13
2022-12-07T14:02:22.445Z,0.95
2022-12-07T14:04:53.385Z,1.13
2022-12-07T14:07:26.576Z,0.95
2022-12-07T14:10:00.463Z,2.13
2022-12-07T14:12:31.025Z,1.05
2022-12-07T14:15:03.328Z,0.88
2022-12-07T14:17:35.411Z,1.20
2022-12-07T14:20:06.307Z,0.85
2022-12-07T14:22:37.701Z,1.20
2022-12-07T14:25:26.377Z,1.10
2022-12-07T14:28:00.108Z,0.80
2022-12-07T14:30:30.878Z,1.10
2022-12-07T14:33:01.911Z,1.05
2022-12-07T14:35:31.380Z,1.10
2022-12-07T14:38:02.589Z,1.48
2022-12-07T14:40:32.510Z,1.00
2022-12-07T14:43:03.968Z,0.93
2022-12-07T14:45:33.398Z,1.08
2022-12-07T14:53:55.091Z,1.00
2022-12-07T14:56:26.880Z,1.25
2022-12-07T14:58:56.323Z,1.23
2022-12-07T15:01:26.036Z,1.10
2022-12-07T15:03:55.512Z,1.08
2022-12-07T15:06:25.121Z,0.90
2022-12-07T15:08:56.791Z,0.90
2022-12-07T15:11:25.840Z,0.90
2022-12-07T15:14:14.686Z,0.83
2022-12-07T15:17:07.912Z,1.38
2022-12-07T15:19:36.528Z,0.67
2022-12-07T15:22:07.920Z,1.27
2022-12-07T15:24:38.330Z,1.25
2022-12-07T15:27:09.713Z,1.00
2022-12-07T15:29:39.769Z,1.35
2022-12-07T15:32:10.029Z,1.67
2022-12-07T15:34:41.848Z,1.27
2022-12-07T15:37:11.338Z,1.30
2022-12-07T15:39:43.770Z,1.90
2022-12-07T15:42:14.992Z,1.70
2022-12-07T15:45:01.574Z,1.70
2022-12-07T15:47:32.328Z,2.07
2022-12-07T15:50:01.994Z,1.60
2022-12-07T15:52:31.900Z,1.20
2022-12-07T15:55:04.090Z,1.33
2022-12-07T15:57:32.967Z,1.23
2022-12-07T16:00:03.502Z,1.90
2022-12-07T16:02:38.096Z,1.50
2022-12-07T16:05:09.860Z,1.40
2022-12-07T16:07:38.454Z,1.50
2022-12-07T16:10:12.281Z,1.67
2022-12-07T16:12:42.180Z,1.30
2022-12-07T16:15:11.173Z,1.50
2022-12-07T16:17:40.915Z,2.07
2022-12-07T16:20:13.237Z,1.30
2022-12-07T16:22:42.174Z,1.93
2022-12-07T16:25:13.189Z,2.30
2022-12-07T16:27:42.196Z,1.20
2022-12-07T16:30:11.544Z,1.90
2022-12-07T16:32:39.946Z,1.33
2022-12-07T16:35:09.154Z,1.73
2022-12-07T16:37:38.894Z,1.53
2022-12-07T16:40:13.232Z,2.23
2022-12-07T16:42:41.415Z,2.30
2022-12-07T16:45:10.381Z,1.77
2022-12-07T16:47:39.738Z,1.67
2022-12-07T16:50:09.721Z,1.43
2022-12-07T16:52:37.818Z,2.20
2022-12-07T16:55:07.504Z,2.13
2022-12-07T16:57:37.032Z,1.90
2022-12-07T17:00:07.855Z,1.50
2022-12-07T17:02:36.276Z,1.83
2022-12-07T17:05:06.250Z,2.53
2022-12-07T17:07:35.523Z,1.53
2022-12-07T17:10:03.939Z,2.00
2022-12-07T17:12:32.284Z,1.63
2022-12-07T17:15:19.529Z,1.40
2022-12-07T17:17:49.497Z,2.30
2022-12-07T17:20:18.985Z,2.17
2022-12-07T17:22:48.666Z,1.77
2022-12-07T17:25:17.632Z,2.07
2022-12-07T17:27:46.711Z,1.90
2022-12-07T17:30:17.542Z,1.60
2022-12-07T17:32:46.756Z,1.63
2022-12-07T17:35:15.461Z,1.27
2022-12-07T17:37:50.718Z,1.73
2022-12-07T17:40:19.676Z,2.03
2022-12-07T17:42:51.443Z,2.03
2022-12-07T17:45:21.229Z,1.70
2022-12-07T17:47:49.972Z,1.30
2022-12-07T17:50:38.183Z,1.60
2022-12-07T17:53:11.475Z,1.57
2022-12-07T17:56:12.043Z,2.37
2022-12-07T17:58:30.413Z,1.80
2022-12-07T18:01:00.772Z,1.53
2022-12-07T18:03:29.020Z,2.03
2022-12-07T18:05:57.929Z,1.03
2022-12-07T18:08:27.019Z,1.73
2022-12-07T18:11:00.679Z,1.90
2022-12-07T18:13:39.441Z,1.70
2022-12-07T18:16:12.590Z,1.53
2022-12-07T18:18:45.369Z,2.17
2022-12-07T18:21:19.544Z,2.53
2022-12-07T18:23:49.548Z,2.33
2022-12-07T18:26:19.388Z,1.70
2022-12-07T18:28:48.759Z,2.77
2022-12-07T18:31:18.956Z,3.07
2022-12-07T18:33:48.283Z,2.20
2022-12-07T18:36:17.967Z,2.67
2022-12-07T18:38:46.272Z,2.93
2022-12-07T18:41:16.254Z,3.20
2022-12-07T18:43:44.998Z,2.60
2022-12-07T18:46:14.110Z,2.73
2022-12-07T18:48:44.115Z,3.17
2022-12-07T18:51:14.786Z,2.60
2022-12-07T18:53:43.133Z,3.30
2022-12-07T18:56:15.160Z,2.83
2022-12-07T18:59:05.896Z,2.77
2022-12-07T19:01:36.904Z,2.87
2022-12-07T19:04:11.433Z,3.77
2022-12-07T19:06:50.522Z,3.30
2022-12-07T19:09:21.077Z,2.63
2022-12-07T19:11:52.941Z,2.90
2022-12-07T19:14:24.933Z,2.93
2022-12-07T19:17:00.811Z,3.53
2022-12-07T19:19:34.124Z,3.13
2022-12-07T19:22:03.584Z,4.67
2022-12-07T19:24:32.454Z,4.03
2022-12-07T19:27:02.236Z,3.40
2022-12-07T19:29:32.498Z,3.07
2022-12-07T19:32:03.003Z,3.50
2022-12-07T19:34:33.991Z,3.47
2022-12-07T19:37:04.091Z,3.30
2022-12-07T19:39:35.715Z,4.07
2022-12-07T19:42:09.088Z,3.80
2022-12-07T19:44:41.192Z,3.37
2022-12-07T19:47:15.878Z,3.00
2022-12-07T19:49:48.168Z,3.17
2022-12-07T19:52:17.507Z,3.50
2022-12-07T19:54:47.428Z,3.43
2022-12-07T19:57:20.030Z,4.10
2022-12-07T19:59:51.574Z,3.47
2022-12-07T20:02:21.181Z,3.37
2022-12-07T20:04:54.362Z,3.87
2022-12-07T20:07:25.013Z,3.67
2022-12-07T20:09:55.729Z,3.20
2022-12-07T20:12:42.066Z,2.97
2022-12-07T20:15:13.409Z,3.33
2022-12-07T20:17:42.458Z,3.07
2022-12-07T20:20:16.203Z,3.17
2022-12-07T20:22:44.881Z,3.40
2022-12-07T20:25:19.622Z,2.57
2022-12-07T20:27:49.358Z,3.17
2022-12-07T20:30:19.095Z,3.00
2022-12-07T20:32:52.873Z,3.17
2022-12-07T20:35:25.576Z,3.90
2022-12-07T20:37:57.732Z,2.67
2022-12-07T20:40:26.189Z,2.60
2022-12-07T20:42:54.461Z,2.77
2022-12-07T20:45:24.370Z,3.37
2022-12-07T20:47:53.056Z,2.87
2022-12-07T20:50:23.388Z,2.80
2022-12-07T20:52:54.881Z,3.43
2022-12-07T20:55:25.987Z,3.20
2022-12-07T20:57:55.674Z,3.40
2022-12-07T21:00:29.447Z,3.43
2022-12-07T21:03:01.268Z,2.73
2022-12-07T21:05:33.378Z,3.73
2022-12-07T21:08:02.897Z,2.80
2022-12-07T21:10:31.500Z,3.07
2022-12-07T21:13:00.398Z,3.70
2022-12-07T21:15:31.134Z,2.83
2022-12-07T21:18:05.747Z,3.80
2022-12-07T21:20:38.150Z,3.90
2022-12-07T21:23:07.607Z,3.63
2022-12-07T21:25:37.887Z,3.37
2022-12-07T21:28:07.631Z,4.80
2022-12-07T21:31:05.014Z,3.60
2022-12-07T21:33:27.077Z,3.97
2022-12-07T21:35:56.661Z,3.50
2022-12-07T21:38:25.169Z,3.33
2022-12-07T21:40:54.343Z,3.17
2022-12-07T21:43:23.015Z,3.97
2022-12-07T21:45:55.710Z,4.50
2022-12-07T21:48:23.989Z,3.77
2022-12-07T21:50:52.374Z,3.93
2022-12-07T21:53:23.217Z,3.40
2022-12-07T21:55:51.457Z,4.03
2022-12-07T21:58:19.842Z,3.60
2022-12-07T22:00:48.166Z,3.47
2022-12-07T22:03:16.443Z,4.53
2022-12-07T22:05:44.647Z,3.37
2022-12-07T22:08:12.863Z,3.83
2022-12-07T22:10:42.574Z,4.10
2022-12-07T22:13:11.380Z,4.03
2022-12-07T22:15:41.359Z,3.37
2022-12-07T22:18:09.631Z,4.73
2022-12-07T22:20:37.684Z,3.40
2022-12-07T22:23:05.847Z,3.83
2022-12-07T22:25:33.944Z,3.10
2022-12-07T22:28:03.549Z,3.43
2022-12-07T22:30:31.825Z,3.53
2022-12-07T22:33:00.901Z,3.83
2022-12-07T22:35:29.668Z,3.97
2022-12-07T22:37:58.009Z,3.73
2022-12-07T22:40:26.348Z,3.63
2022-12-07T22:42:54.853Z,3.67
2022-12-07T22:45:24.477Z,4.03
2022-12-07T22:47:52.652Z,4.00
2022-12-07T22:50:20.887Z,4.47
2022-12-07T22:52:49.246Z,4.33
2022-12-07T22:55:17.953Z,3.87
2022-12-07T22:57:46.284Z,3.83
2022-12-07T23:00:15.838Z,4.03
2022-12-07T23:02:45.592Z,3.57
2022-12-07T23:05:13.912Z,4.33
2022-12-07T23:07:42.465Z,3.73
2022-12-07T23:10:11.518Z,4.10
2022-12-07T23:12:57.412Z,4.77
2022-12-07T23:15:25.801Z,3.87
2022-12-07T23:17:55.412Z,4.40
2022-12-07T23:20:23.586Z,3.43
2022-12-07T23:22:52.907Z,4.70
2022-12-07T23:25:21.450Z,5.00
2022-12-07T23:27:49.642Z,3.77
2022-12-07T23:30:18.345Z,5.30
2022-12-07T23:32:47.817Z,4.87
2022-12-07T23:35:18.534Z,4.40
2022-12-07T23:37:46.911Z,3.80
2022-12-07T23:40:15.074Z,5.63
2022-12-07T23:42:43.172Z,5.13
2022-12-07T23:45:12.228Z,4.47
2022-12-07T23:47:40.241Z,4.30
2022-12-07T23:50:09.661Z,5.07
2022-12-07T23:52:39.120Z,5.63
2022-12-07T23:55:08.170Z,4.73
2022-12-07T23:57:36.282Z,4.87
